createdAt,value
2023-01-19T00:00:56.407Z,-4.78
2023-01-19T00:03:23.160Z,-4.71
2023-01-19T00:05:50.141Z,-4.69
2023-01-19T00:08:19.892Z,-4.79
2023-01-19T00:10:48.308Z,-4.77
2023-01-19T00:13:15.384Z,-4.96
2023-01-19T00:15:42.381Z,-5.08
2023-01-19T00:18:10.875Z,-5.20
2023-01-19T00:20:39.264Z,-5.26
2023-01-19T00:23:06.422Z,-5.24
2023-01-19T00:25:33.588Z,-5.26
2023-01-19T00:28:01.672Z,-5.11
2023-01-19T00:30:31.434Z,-5.10
2023-01-19T00:33:01.435Z,-5.30
2023-01-19T00:35:28.882Z,-5.50
2023-01-19T00:37:58.945Z,-5.57
2023-01-19T00:40:26.066Z,-5.56
2023-01-19T00:42:53.783Z,-5.62
2023-01-19T00:45:22.026Z,-5.55
2023-01-19T00:47:49.098Z,-5.29
2023-01-19T00:50:16.486Z,-5.37
2023-01-19T00:52:43.885Z,-5.37
2023-01-19T00:55:11.711Z,-5.60
2023-01-19T00:57:39.947Z,-5.73
2023-01-19T01:00:08.591Z,-5.77
2023-01-19T01:02:36.670Z,-5.80
2023-01-19T01:05:06.546Z,-5.74
2023-01-19T01:07:34.788Z,-5.80
2023-01-19T01:10:01.889Z,-5.74
2023-01-19T01:12:31.399Z,-5.78
2023-01-19T01:14:58.499Z,-5.43
2023-01-19T01:17:26.342Z,-5.59
2023-01-19T01:19:53.614Z,-5.63
2023-01-19T01:22:20.794Z,-5.72
2023-01-19T01:24:52.733Z,-5.56
2023-01-19T01:27:19.774Z,-5.81
2023-01-19T01:29:46.975Z,-5.65
2023-01-19T01:32:14.702Z,-5.24
2023-01-19T01:34:44.341Z,-4.99
2023-01-19T01:37:11.481Z,-5.02
2023-01-19T01:39:41.071Z,-5.36
2023-01-19T01:42:32.171Z,-5.53
2023-01-19T01:45:04.547Z,-5.64
2023-01-19T01:47:38.623Z,-5.72
2023-01-19T01:50:21.498Z,-5.87
2023-01-19T01:53:06.491Z,-5.70
2023-01-19T01:55:35.048Z,-5.79
2023-01-19T01:58:04.930Z,-5.64
2023-01-19T02:00:33.011Z,-5.84
2023-01-19T02:03:00.407Z,-5.58
2023-01-19T02:05:34.671Z,-5.66
2023-01-19T02:08:08.504Z,-5.87
2023-01-19T02:10:35.354Z,-5.97
2023-01-19T02:13:05.483Z,-6.01
2023-01-19T02:15:32.602Z,-6.09
2023-01-19T02:18:00.500Z,-5.49
2023-01-19T02:20:30.473Z,-5.57
2023-01-19T02:23:00.848Z,-6.01
2023-01-19T02:25:28.106Z,-5.79
2023-01-19T02:27:55.327Z,-5.45
2023-01-19T02:30:22.125Z,-5.38
2023-01-19T02:32:51.631Z,-4.91
2023-01-19T02:35:18.800Z,-5.17
2023-01-19T02:37:46.956Z,-5.21
2023-01-19T02:40:19.830Z,-5.22
2023-01-19T02:42:48.752Z,-5.21
2023-01-19T02:45:19.849Z,-4.99
2023-01-19T02:47:51.182Z,-4.82
2023-01-19T02:50:51.396Z,-5.27
2023-01-19T02:53:49.985Z,-5.29
2023-01-19T02:56:38.711Z,-5.43
2023-01-19T02:59:31.812Z,-5.54
2023-01-19T03:02:10.571Z,-5.56
2023-01-19T03:05:07.852Z,-5.66
2023-01-19T03:07:55.500Z,-5.61
2023-01-19T03:10:45.819Z,-5.72
2023-01-19T03:13:18.489Z,-5.65
2023-01-19T03:16:16.129Z,-5.61
2023-01-19T03:18:46.595Z,-5.57
2023-01-19T03:21:13.839Z,-5.86
2023-01-19T03:23:41.207Z,-5.94
2023-01-19T03:26:10.897Z,-5.93
2023-01-19T03:28:39.093Z,-5.91
2023-01-19T03:31:12.983Z,-5.95
2023-01-19T03:33:44.056Z,-5.64
2023-01-19T03:36:55.948Z,-5.90
2023-01-19T03:39:23.569Z,-5.94
2023-01-19T03:42:12.999Z,-6.00
2023-01-19T03:44:59.923Z,-5.98
2023-01-19T03:47:46.584Z,-5.98
2023-01-19T03:50:15.007Z,-6.11
2023-01-19T03:52:47.416Z,-6.13
2023-01-19T03:55:32.797Z,-6.11
2023-01-19T03:58:00.579Z,-6.05
2023-01-19T04:00:27.777Z,-6.04
2023-01-19T04:02:54.629Z,-5.92
2023-01-19T04:05:21.644Z,-5.92
2023-01-19T04:07:49.829Z,-6.07
2023-01-19T04:10:17.534Z,-6.21
2023-01-19T04:12:44.694Z,-6.30
2023-01-19T04:15:11.556Z,-6.37
2023-01-19T04:17:38.565Z,-6.29
2023-01-19T04:20:05.976Z,-6.29
2023-01-19T04:22:33.235Z,-6.23
2023-01-19T04:25:00.390Z,-6.20
2023-01-19T04:27:28.289Z,-6.34
2023-01-19T04:29:55.516Z,-6.42
2023-01-19T04:32:23.713Z,-6.43
2023-01-19T04:34:50.832Z,-6.36
2023-01-19T04:37:17.518Z,-6.23
2023-01-19T04:39:45.513Z,-6.09
2023-01-19T04:42:12.524Z,-6.13
2023-01-19T04:44:40.227Z,-6.41
2023-01-19T04:47:10.022Z,-6.42
2023-01-19T04:49:38.400Z,-6.51
2023-01-19T04:52:06.229Z,-6.46
2023-01-19T04:54:33.411Z,-6.47
2023-01-19T04:57:00.611Z,-6.44
2023-01-19T04:59:27.606Z,-6.32
2023-01-19T05:01:54.915Z,-6.40
2023-01-19T05:04:22.179Z,-6.55
2023-01-19T05:07:04.148Z,-6.46
2023-01-19T05:09:31.059Z,-6.44
2023-01-19T05:12:03.522Z,-6.38
2023-01-19T05:14:30.481Z,-6.41
2023-01-19T05:16:57.342Z,-6.34
2023-01-19T05:19:27.794Z,-6.31
2023-01-19T05:21:54.960Z,-6.15
2023-01-19T05:24:27.907Z,-6.21
2023-01-19T05:26:55.265Z,-6.21
2023-01-19T05:29:22.437Z,-6.14
2023-01-19T05:31:50.068Z,-6.14
2023-01-19T05:34:19.238Z,-6.34
2023-01-19T05:36:47.219Z,-6.39
2023-01-19T05:39:14.452Z,-6.28
2023-01-19T05:41:42.318Z,-6.25
2023-01-19T05:44:12.508Z,-6.23
2023-01-19T05:46:40.096Z,-6.16
2023-01-19T05:49:07.778Z,-6.21
2023-01-19T05:51:35.301Z,-6.23
2023-01-19T05:54:02.462Z,-6.19
2023-01-19T05:56:29.559Z,-6.18
2023-01-19T05:58:56.625Z,-6.18
2023-01-19T06:01:23.766Z,-6.30
2023-01-19T06:03:53.467Z,-6.28
2023-01-19T06:06:20.296Z,-6.28
2023-01-19T06:08:48.323Z,-6.36
2023-01-19T06:11:15.099Z,-6.51
2023-01-19T06:13:42.295Z,-6.51
2023-01-19T06:16:09.082Z,-6.53
2023-01-19T06:18:35.812Z,-6.64
2023-01-19T06:21:07.865Z,-6.58
2023-01-19T06:23:34.686Z,-6.54
2023-01-19T06:26:02.174Z,-6.50
2023-01-19T06:28:28.905Z,-6.46
2023-01-19T06:30:55.981Z,-6.50
2023-01-19T06:33:23.217Z,-6.49
2023-01-19T06:35:50.756Z,-6.48
2023-01-19T06:38:18.563Z,-6.49
2023-01-19T06:40:46.881Z,-6.47
2023-01-19T06:43:13.657Z,-6.46
2023-01-19T06:45:40.686Z,-6.45
2023-01-19T06:48:08.300Z,-6.42
2023-01-19T06:50:35.923Z,-6.43
2023-01-19T06:53:03.331Z,-6.47
2023-01-19T06:55:31.223Z,-6.48
2023-01-19T06:57:58.642Z,-6.48
2023-01-19T07:00:25.651Z,-6.46
2023-01-19T07:02:52.417Z,-6.48
2023-01-19T07:05:19.429Z,-6.51
2023-01-19T07:07:58.590Z,-6.45
2023-01-19T07:10:25.287Z,-6.44
2023-01-19T07:12:52.116Z,-6.39
2023-01-19T07:15:19.222Z,-6.44
2023-01-19T07:17:46.353Z,-6.50
2023-01-19T07:20:13.260Z,-6.37
2023-01-19T07:22:45.392Z,-6.34
2023-01-19T07:25:13.731Z,-6.33
2023-01-19T07:27:40.863Z,-6.48
2023-01-19T07:30:08.657Z,-6.52
2023-01-19T07:32:35.494Z,-6.63
2023-01-19T07:35:02.942Z,-6.63
2023-01-19T07:37:29.627Z,-6.52
2023-01-19T07:39:56.319Z,-6.51
2023-01-19T07:42:23.074Z,-6.51
2023-01-19T07:44:50.161Z,-6.46
2023-01-19T07:47:17.344Z,-6.45
2023-01-19T07:49:45.802Z,-6.39
2023-01-19T07:52:13.298Z,-6.40
2023-01-19T07:54:42.841Z,-6.25
2023-01-19T07:57:12.633Z,-6.26
2023-01-19T07:59:42.200Z,-6.25
2023-01-19T08:02:10.157Z,-6.23
2023-01-19T08:04:38.087Z,-6.12
2023-01-19T08:07:05.116Z,-6.07
2023-01-19T08:09:32.171Z,-5.85
2023-01-19T08:12:06.197Z,-5.83
2023-01-19T08:14:33.453Z,-5.70
2023-01-19T08:17:00.871Z,-5.67
2023-01-19T08:19:27.752Z,-5.58
2023-01-19T08:21:54.731Z,-5.45
2023-01-19T08:24:22.957Z,-5.34
2023-01-19T08:26:49.789Z,-5.21
2023-01-19T08:29:16.886Z,-5.12
2023-01-19T08:31:46.699Z,-5.01
2023-01-19T08:34:13.848Z,-4.90
2023-01-19T08:36:41.063Z,-4.76
2023-01-19T08:39:07.795Z,-4.51
2023-01-19T08:41:34.513Z,-4.50
2023-01-19T08:44:04.193Z,-4.36
2023-01-19T08:46:30.977Z,-4.24
2023-01-19T08:48:59.250Z,-4.24
2023-01-19T08:51:26.335Z,-3.77
2023-01-19T08:53:54.134Z,-3.37
2023-01-19T08:56:20.976Z,-3.24
2023-01-19T08:58:53.608Z,-3.16
2023-01-19T09:01:33.202Z,-2.98
2023-01-19T09:04:02.847Z,-2.75
2023-01-19T09:06:29.893Z,-2.75
2023-01-19T09:08:59.380Z,-1.52
2023-01-19T09:11:26.332Z,-1.09
2023-01-19T09:13:56.011Z,-0.92
2023-01-19T09:16:22.945Z,-0.69
2023-01-19T09:18:50.333Z,-1.51
2023-01-19T09:21:18.559Z,-0.87
2023-01-19T09:23:45.408Z,-0.82
2023-01-19T09:26:19.177Z,-0.72
2023-01-19T09:28:46.132Z,0.07
2023-01-19T09:31:13.002Z,0.32
2023-01-19T09:33:40.185Z,0.15
2023-01-19T09:36:07.312Z,1.34
2023-01-19T09:38:35.430Z,0.79
2023-01-19T09:41:02.109Z,1.60
2023-01-19T09:43:35.296Z,0.76
2023-01-19T09:46:12.721Z,0.12
2023-01-19T09:48:45.652Z,1.38
2023-01-19T09:51:20.365Z,2.09
2023-01-19T09:53:47.270Z,2.11
2023-01-19T09:56:14.957Z,2.14
2023-01-19T09:58:41.791Z,1.83
2023-01-19T10:01:36.500Z,1.41
2023-01-19T10:04:38.545Z,-0.06
2023-01-19T10:07:30.047Z,1.17
2023-01-19T10:10:22.609Z,1.62
2023-01-19T10:13:01.385Z,1.83
2023-01-19T10:15:37.944Z,1.62
2023-01-19T10:18:28.112Z,1.17
2023-01-19T10:21:04.648Z,1.72
2023-01-19T10:23:50.926Z,1.08
2023-01-19T10:26:32.448Z,2.11
2023-01-19T10:29:06.694Z,3.28
2023-01-19T10:31:34.775Z,2.60
2023-01-19T10:34:11.052Z,2.31
2023-01-19T10:36:38.257Z,2.52
2023-01-19T10:39:06.086Z,3.14
2023-01-19T10:42:03.376Z,3.64
2023-01-19T10:44:37.134Z,4.48
2023-01-19T10:47:04.751Z,4.27
2023-01-19T10:49:41.263Z,4.53
2023-01-19T10:52:08.987Z,3.59
2023-01-19T10:54:37.814Z,4.67
2023-01-19T10:57:10.797Z,3.23
2023-01-19T10:59:49.640Z,3.52
2023-01-19T11:02:29.270Z,4.40
2023-01-19T11:05:00.656Z,3.72
2023-01-19T11:07:31.879Z,2.76
2023-01-19T11:10:17.452Z,3.91
2023-01-19T11:13:07.203Z,4.74
2023-01-19T11:15:48.540Z,4.71
2023-01-19T11:18:24.565Z,3.39
2023-01-19T11:20:52.737Z,4.10
2023-01-19T11:23:27.681Z,4.47
2023-01-19T11:25:56.508Z,3.98
2023-01-19T11:28:42.018Z,5.40
2023-01-19T11:31:19.877Z,4.00
2023-01-19T11:33:53.689Z,3.84
2023-01-19T11:36:23.994Z,4.29
2023-01-19T11:39:01.900Z,4.60
2023-01-19T11:41:33.379Z,5.17
2023-01-19T11:44:32.159Z,5.81
2023-01-19T11:47:00.687Z,6.89
2023-01-19T11:50:06.542Z,4.40
2023-01-19T11:52:40.069Z,4.47
2023-01-19T11:55:18.905Z,3.89
2023-01-19T11:57:46.412Z,4.74
2023-01-19T12:00:44.965Z,3.69
2023-01-19T12:03:22.789Z,3.12
2023-01-19T12:05:51.906Z,2.41
2023-01-19T12:09:10.629Z,2.45
2023-01-19T12:11:38.947Z,2.78
2023-01-19T12:14:09.383Z,2.93
2023-01-19T12:16:36.151Z,3.07
2023-01-19T12:19:05.528Z,2.26
2023-01-19T12:21:35.105Z,3.18
2023-01-19T12:24:18.206Z,4.24
2023-01-19T12:26:51.330Z,3.98
2023-01-19T12:29:19.876Z,5.37
2023-01-19T12:31:49.391Z,4.79
2023-01-19T12:34:39.025Z,4.05
2023-01-19T12:37:06.695Z,4.88
2023-01-19T12:39:33.716Z,3.83
2023-01-19T12:42:21.519Z,3.75
2023-01-19T12:44:48.285Z,4.92
2023-01-19T12:47:19.442Z,5.12
2023-01-19T12:49:55.149Z,3.78
2023-01-19T12:52:28.762Z,4.47
2023-01-19T12:55:31.027Z,3.83
2023-01-19T12:58:14.932Z,5.38
2023-01-19T13:00:42.417Z,6.32
2023-01-19T13:03:30.468Z,5.91
2023-01-19T13:05:57.758Z,6.84
2023-01-19T13:08:26.032Z,6.34
2023-01-19T13:11:13.381Z,5.24
2023-01-19T13:13:46.504Z,5.14
2023-01-19T13:16:19.807Z,4.52
2023-01-19T13:18:50.863Z,5.64
2023-01-19T13:21:36.947Z,5.40
2023-01-19T13:24:05.573Z,3.99
2023-01-19T13:26:50.279Z,5.12
2023-01-19T13:29:29.918Z,4.60
2023-01-19T13:31:58.604Z,5.37
2023-01-19T13:34:25.952Z,4.77
2023-01-19T13:36:56.637Z,3.53
2023-01-19T13:39:28.760Z,3.94
2023-01-19T13:41:57.487Z,4.27
2023-01-19T13:44:26.265Z,2.68
2023-01-19T13:46:53.109Z,3.33
2023-01-19T13:49:27.303Z,4.03
2023-01-19T13:52:10.043Z,3.65
2023-01-19T13:55:02.333Z,3.89
2023-01-19T13:57:33.998Z,4.66
2023-01-19T14:00:16.474Z,4.75
2023-01-19T14:03:03.007Z,2.51
2023-01-19T14:05:38.008Z,2.67
2023-01-19T14:08:14.102Z,3.36
2023-01-19T14:10:45.583Z,3.27
2023-01-19T14:13:23.119Z,3.88
2023-01-19T14:15:55.171Z,1.63
2023-01-19T14:18:25.691Z,2.56
2023-01-19T14:21:00.483Z,3.62
2023-01-19T14:23:52.428Z,3.89
2023-01-19T14:26:38.686Z,4.27
2023-01-19T14:29:27.307Z,4.28
2023-01-19T14:32:14.666Z,4.75
2023-01-19T14:34:56.902Z,5.08
2023-01-19T14:37:28.280Z,4.91
2023-01-19T14:40:13.273Z,2.97
2023-01-19T14:42:59.217Z,2.40
2023-01-19T14:45:36.990Z,3.37
2023-01-19T14:48:26.685Z,0.75
2023-01-19T14:51:02.726Z,0.57
2023-01-19T14:53:37.949Z,2.12
2023-01-19T14:56:06.243Z,2.34
2023-01-19T14:58:36.380Z,2.81
2023-01-19T15:01:06.938Z,2.80
2023-01-19T15:03:44.064Z,2.90
2023-01-19T15:06:17.597Z,1.89
2023-01-19T15:08:44.420Z,1.81
2023-01-19T15:11:32.053Z,1.82
2023-01-19T15:14:01.896Z,2.12
2023-01-19T15:16:29.470Z,1.81
2023-01-19T15:18:56.414Z,0.35
2023-01-19T15:21:23.565Z,-0.47
2023-01-19T15:23:50.442Z,0.01
2023-01-19T15:26:18.273Z,0.66
2023-01-19T15:28:48.025Z,1.38
2023-01-19T15:31:26.292Z,1.77
2023-01-19T15:33:53.089Z,2.14
2023-01-19T15:36:21.180Z,2.48
2023-01-19T15:38:50.920Z,2.70
2023-01-19T15:41:29.686Z,1.64
2023-01-19T15:43:56.529Z,2.20
2023-01-19T15:46:23.847Z,2.60
2023-01-19T15:48:50.746Z,2.42
2023-01-19T15:51:19.476Z,2.24
2023-01-19T15:53:46.435Z,2.03
2023-01-19T15:56:20.366Z,0.60
2023-01-19T15:58:47.428Z,1.02
2023-01-19T16:01:32.779Z,1.39
2023-01-19T16:04:00.446Z,1.02
2023-01-19T16:06:27.312Z,0.53
2023-01-19T16:08:55.084Z,0.90
2023-01-19T16:11:22.714Z,1.32
2023-01-19T16:13:52.284Z,1.36
2023-01-19T16:16:21.396Z,1.40
2023-01-19T16:18:51.053Z,1.33
2023-01-19T16:21:17.817Z,1.38
2023-01-19T16:23:44.504Z,0.30
2023-01-19T16:26:25.648Z,-0.47
2023-01-19T16:28:52.436Z,-1.15
2023-01-19T16:31:22.163Z,-1.01
2023-01-19T16:33:49.373Z,-0.89
2023-01-19T16:36:29.766Z,-0.30
2023-01-19T16:39:14.877Z,-1.34
2023-01-19T16:41:42.139Z,-1.74
2023-01-19T16:44:10.340Z,-1.96
2023-01-19T16:46:40.815Z,-1.87
2023-01-19T16:49:18.107Z,-1.33
2023-01-19T16:51:45.037Z,-1.68
2023-01-19T16:54:16.237Z,-1.68
2023-01-19T16:56:42.924Z,-1.88
2023-01-19T16:59:14.252Z,-2.11
2023-01-19T17:01:42.527Z,-2.05
2023-01-19T17:04:09.773Z,-2.34
2023-01-19T17:06:36.789Z,-2.31
2023-01-19T17:09:03.577Z,-2.21
2023-01-19T17:11:31.190Z,-2.62
2023-01-19T17:14:00.374Z,-2.83
2023-01-19T17:16:30.455Z,-3.11
2023-01-19T17:18:57.851Z,-3.29
2023-01-19T17:21:26.502Z,-3.40
2023-01-19T17:23:54.946Z,-3.49
2023-01-19T17:26:22.249Z,-3.63
2023-01-19T17:28:48.998Z,-3.60
2023-01-19T17:31:20.718Z,-3.72
2023-01-19T17:33:49.124Z,-3.79
2023-01-19T17:36:17.881Z,-3.82
2023-01-19T17:38:44.913Z,-3.87
2023-01-19T17:41:22.058Z,-3.90
2023-01-19T17:43:51.798Z,-3.90
2023-01-19T17:46:19.584Z,-3.94
2023-01-19T17:48:54.092Z,-4.01
2023-01-19T17:51:21.396Z,-4.11
2023-01-19T17:53:48.693Z,-4.04
2023-01-19T17:56:16.155Z,-4.08
2023-01-19T17:58:44.011Z,-4.07
2023-01-19T18:01:12.593Z,-4.13
2023-01-19T18:03:39.384Z,-3.99
2023-01-19T18:06:07.218Z,-3.98
2023-01-19T18:08:34.028Z,-3.98
2023-01-19T18:11:09.413Z,-3.99
2023-01-19T18:13:36.215Z,-4.05
2023-01-19T18:16:04.715Z,-4.11
2023-01-19T18:18:35.032Z,-4.22
2023-01-19T18:21:03.126Z,-4.14
2023-01-19T18:23:32.800Z,-4.27
2023-01-19T18:26:06.221Z,-4.30
2023-01-19T18:28:33.163Z,-4.26
2023-01-19T18:31:14.680Z,-4.23
2023-01-19T18:33:41.443Z,-4.29
2023-01-19T18:36:22.396Z,-4.17
2023-01-19T18:38:49.474Z,-4.22
2023-01-19T18:41:17.904Z,-4.23
2023-01-19T18:43:44.654Z,-4.19
2023-01-19T18:46:14.562Z,-4.22
2023-01-19T18:48:41.756Z,-4.32
2023-01-19T18:51:10.423Z,-4.28
2023-01-19T18:53:37.739Z,-4.27
2023-01-19T18:56:05.705Z,-4.33
2023-01-19T18:58:36.932Z,-4.46
2023-01-19T19:01:05.075Z,-4.35
2023-01-19T19:03:40.753Z,-4.51
2023-01-19T19:06:07.984Z,-4.37
2023-01-19T19:08:34.917Z,-4.18
2023-01-19T19:11:01.600Z,-4.12
2023-01-19T19:13:28.349Z,-3.60
2023-01-19T19:16:02.094Z,-3.75
2023-01-19T19:18:29.235Z,-4.11
2023-01-19T19:20:56.024Z,-4.30
2023-01-19T19:23:25.712Z,-4.07
2023-01-19T19:25:54.751Z,-4.34
2023-01-19T19:28:24.490Z,-4.45
2023-01-19T19:31:04.299Z,-4.09
2023-01-19T19:33:35.928Z,-4.21
2023-01-19T19:36:02.835Z,-4.31
2023-01-19T19:38:30.351Z,-4.11
2023-01-19T19:41:20.539Z,-4.15
2023-01-19T19:43:47.696Z,-4.20
2023-01-19T19:46:15.581Z,-4.14
2023-01-19T19:48:42.655Z,-4.08
2023-01-19T19:51:19.361Z,-4.08
2023-01-19T19:53:47.039Z,-4.23
2023-01-19T19:56:18.970Z,-4.27
2023-01-19T19:58:45.709Z,-3.97
2023-01-19T20:01:20.727Z,-3.79
2023-01-19T20:03:48.140Z,-3.56
2023-01-19T20:06:17.146Z,-3.63
2023-01-19T20:08:43.937Z,-4.08
2023-01-19T20:11:16.564Z,-4.39
2023-01-19T20:13:46.207Z,-4.47
2023-01-19T20:16:15.794Z,-4.42
2023-01-19T20:18:43.432Z,-4.16
2023-01-19T20:21:40.396Z,-5.13
2023-01-19T20:24:09.831Z,-4.51
2023-01-19T20:26:39.610Z,-4.84
2023-01-19T20:29:07.351Z,-4.42
2023-01-19T20:31:35.838Z,-4.34
2023-01-19T20:34:06.179Z,-4.53
2023-01-19T20:36:32.972Z,-4.22
2023-01-19T20:38:59.689Z,-4.91
2023-01-19T20:41:27.256Z,-4.77
2023-01-19T20:43:53.970Z,-4.24
2023-01-19T20:46:21.089Z,-5.37
2023-01-19T20:48:47.909Z,-5.05
2023-01-19T20:51:14.750Z,-4.45
2023-01-19T20:53:44.312Z,-4.62
2023-01-19T20:56:11.941Z,-4.36
2023-01-19T20:58:39.661Z,-3.90
2023-01-19T21:01:13.240Z,-3.79
2023-01-19T21:03:40.190Z,-3.24
2023-01-19T21:06:12.297Z,-3.70
2023-01-19T21:08:39.070Z,-5.02
2023-01-19T21:11:06.043Z,-4.76
2023-01-19T21:13:32.885Z,-5.27
2023-01-19T21:16:01.936Z,-5.69
2023-01-19T21:18:28.845Z,-5.63
2023-01-19T21:20:55.725Z,-5.49
2023-01-19T21:23:22.972Z,-5.60
2023-01-19T21:25:50.889Z,-5.52
2023-01-19T21:28:18.761Z,-5.31
2023-01-19T21:30:45.824Z,-5.45
2023-01-19T21:33:12.640Z,-5.41
2023-01-19T21:35:39.329Z,-5.79
2023-01-19T21:38:07.106Z,-5.92
2023-01-19T21:40:33.843Z,-5.96
2023-01-19T21:43:01.748Z,-5.99
2023-01-19T21:45:28.673Z,-5.92
2023-01-19T21:47:55.963Z,-5.74
2023-01-19T21:50:23.584Z,-5.69
2023-01-19T21:52:50.560Z,-5.78
2023-01-19T21:55:17.586Z,-5.72
2023-01-19T21:57:45.018Z,-5.59
2023-01-19T22:00:11.864Z,-5.73
2023-01-19T22:02:39.349Z,-5.71
2023-01-19T22:05:06.716Z,-5.96
2023-01-19T22:07:33.473Z,-6.00
2023-01-19T22:10:00.786Z,-5.78
2023-01-19T22:12:30.415Z,-5.87
2023-01-19T22:14:57.091Z,-5.53
2023-01-19T22:17:24.624Z,-5.13
2023-01-19T22:19:54.282Z,-5.29
2023-01-19T22:22:21.036Z,-4.90
2023-01-19T22:24:50.539Z,-4.58
2023-01-19T22:27:17.650Z,-5.12
2023-01-19T22:29:44.437Z,-4.81
2023-01-19T22:32:11.128Z,-4.30
2023-01-19T22:34:38.193Z,-4.54
2023-01-19T22:37:06.024Z,-4.83
2023-01-19T22:39:32.717Z,-5.25
2023-01-19T22:42:00.289Z,-5.02
2023-01-19T22:44:27.724Z,-5.11
2023-01-19T22:46:55.366Z,-5.15
2023-01-19T22:49:23.342Z,-5.06
2023-01-19T22:51:50.173Z,-5.10
2023-01-19T22:54:17.293Z,-5.09
2023-01-19T22:56:45.412Z,-4.89
2023-01-19T22:59:12.545Z,-4.84
2023-01-19T23:01:41.045Z,-5.02
2023-01-19T23:04:08.733Z,-5.06
2023-01-19T23:06:36.182Z,-5.11
2023-01-19T23:09:08.162Z,-4.99
2023-01-19T23:11:36.950Z,-5.14
2023-01-19T23:14:04.915Z,-5.09
2023-01-19T23:16:32.171Z,-4.99
2023-01-19T23:18:59.000Z,-4.86
2023-01-19T23:21:27.151Z,-4.52
2023-01-19T23:23:55.549Z,-4.40
2023-01-19T23:26:23.166Z,-4.82
2023-01-19T23:29:02.136Z,-4.33
2023-01-19T23:31:48.833Z,-4.77
2023-01-19T23:34:15.837Z,-4.64
2023-01-19T23:36:46.486Z,-4.98
2023-01-19T23:39:18.262Z,-5.15
2023-01-19T23:41:45.031Z,-5.64
2023-01-19T23:44:20.555Z,-5.58
2023-01-19T23:46:48.698Z,-5.24
2023-01-19T23:49:15.465Z,-5.66
2023-01-19T23:51:42.511Z,-5.68
2023-01-19T23:54:10.261Z,-5.63
2023-01-19T23:56:37.544Z,-5.62
2023-01-19T23:59:12.878Z,-5.45
